This is the latest recevied weather packets stored in our database for station/object KC8YYF. If no packets are shown the sender has not sent any weather packets the latest 10 day(s).
| Time | Temp. | Humidity | Pressure | Rain* | Wind** | Luminosity | Snow |
|---|---|---|---|---|---|---|---|
| 1777577574 | 8.89° C | 82% | 1015.9 hPa | 0 mm | - | 159 W/m² | - |
| 1777577271 | 8.33° C | 82% | 1015.7 hPa | 0 mm | - | 165 W/m² | - |
| 1777576967 | 8.33° C | 81% | 1015.5 hPa | 0 mm | - | 81 W/m² | - |
| 1777576663 | 8.33° C | 80% | 1015.7 hPa | 0 mm | - | 75 W/m² | - |
| 1777576358 | 8.89° C | 76% | 1015.7 hPa | 0 mm | - | 113 W/m² | - |
| 1777576055 | 10° C | 68% | 1015.4 hPa | 0 mm | - | 35 W/m² | - |
| 1777575751 | 10.56° C | 66% | 1015.3 hPa | 0 mm | - | 38 W/m² | - |
| 1777575447 | 11.11° C | 65% | 1015.3 hPa | 0 mm | - | 86 W/m² | - |
| 1777575143 | 11.11° C | 64% | 1014.9 hPa | 0 mm | - | 73 W/m² | - |
| 1777574838 | 11.67° C | 64% | 1015.1 hPa | 0 mm | - | 100 W/m² | - |
| 1777574537 | 11.11° C | 64% | 1015.2 hPa | 0 mm | - | 506 W/m² | - |
| 1777574233 | 11.67° C | 62% | 1015.3 hPa | 0 mm | - | 79 W/m² | - |
| 1777573928 | 11.11° C | 63% | 1015.2 hPa | 0 mm | - | 259 W/m² | - |
| 1777573622 | 11.67° C | 64% | 1015.3 hPa | 0 mm | - | 262 W/m² | - |
| 1777573319 | 11.67° C | 64% | 1015.3 hPa | 0 mm | - | 150 W/m² | - |
| 1777573015 | 11.67° C | 65% | 1015.4 hPa | 0 mm | - | 686 W/m² | - |
| 1777572710 | 10.56° C | 68% | 1015.5 hPa | 0 mm | - | 636 W/m² | - |
| 1777572405 | 10.56° C | 67% | 1015.3 hPa | 0 mm | - | 566 W/m² | - |
| 1777572102 | 11.67° C | 68% | 1015.6 hPa | 0 mm | - | 652 W/m² | - |
| 1777571797 | 10° C | 72% | 1015.3 hPa | 0 mm | - | 552 W/m² | - |
| 1777571494 | 10° C | 73% | 1015.5 hPa | 0 mm | - | 690 W/m² | - |
| 1777571191 | 10° C | 74% | 1015.5 hPa | 0 mm | - | 246 W/m² | - |
| 1777570886 | 9.44° C | 77% | 1015.5 hPa | 0 mm | - | 710 W/m² | - |
| 1777570582 | 9.44° C | 80% | 1015.7 hPa | 0 mm | - | 269 W/m² | - |
| 1777570279 | 8.89° C | 81% | 1015.6 hPa | 0 mm | - | 147 W/m² | - |
* Rain latest hour (hover to see other rain measurements)
** Current wind speed in m/s (hover to see current wind gust speed)